createdAt,value
2023-01-13T00:01:08.014Z,98997.06
2023-01-13T00:03:35.656Z,98998.75
2023-01-13T00:06:05.000Z,98997.88
2023-01-13T00:08:33.757Z,98999.63
2023-01-13T00:11:01.378Z,98990.78
2023-01-13T00:13:29.246Z,98997.88
2023-01-13T00:15:58.020Z,98987.31
2023-01-13T00:18:25.703Z,98986.38
2023-01-13T00:20:59.973Z,98988.25
2023-01-13T00:23:30.400Z,98987.31
2023-01-13T00:25:58.137Z,98990.84
2023-01-13T00:28:26.190Z,98990.06
2023-01-13T00:30:53.813Z,98987.22
2023-01-13T00:33:21.693Z,98988.25
2023-01-13T00:35:56.956Z,98978.47
2023-01-13T00:38:24.579Z,98983.91
2023-01-13T00:41:00.436Z,98973.03
2023-01-13T00:43:28.642Z,98978.47
2023-01-13T00:45:56.262Z,98978.63
2023-01-13T00:48:24.785Z,98968.75
2023-01-13T00:50:56.502Z,98981.13
2023-01-13T00:53:24.380Z,98975.00
2023-01-13T00:56:01.632Z,98980.41
2023-01-13T00:58:29.964Z,98981.03
2023-01-13T01:01:01.186Z,98984.72
2023-01-13T01:03:29.402Z,98981.00
2023-01-13T01:05:57.175Z,98974.03
2023-01-13T01:08:25.022Z,98975.81
2023-01-13T01:11:03.036Z,98973.22
2023-01-13T01:13:30.995Z,98975.00
2023-01-13T01:15:58.707Z,98974.84
2023-01-13T01:18:26.546Z,98976.56
2023-01-13T01:20:54.152Z,98978.44
2023-01-13T01:23:21.768Z,98979.31
2023-01-13T01:25:49.366Z,98980.25
2023-01-13T01:28:19.458Z,98984.47
2023-01-13T01:30:47.196Z,98981.03
2023-01-13T01:33:14.914Z,98982.91
2023-01-13T01:35:42.949Z,98981.13
2023-01-13T01:38:10.552Z,98978.38
2023-01-13T01:40:38.184Z,98974.03
2023-01-13T01:43:31.727Z,98959.56
2023-01-13T01:46:00.660Z,98960.41
2023-01-13T01:48:29.359Z,98940.75
2023-01-13T01:50:57.042Z,98941.81
2023-01-13T01:53:25.858Z,98941.75
2023-01-13T01:55:53.478Z,98946.28
2023-01-13T01:58:22.784Z,98951.78
2023-01-13T02:00:50.534Z,98941.84
2023-01-13T02:03:19.642Z,98937.75
2023-01-13T02:05:47.289Z,98944.72
2023-01-13T02:08:15.261Z,98941.00
2023-01-13T02:10:43.979Z,98936.81
2023-01-13T02:13:13.197Z,98929.50
2023-01-13T02:15:45.444Z,98932.53
2023-01-13T02:18:31.490Z,98935.00
2023-01-13T02:21:43.833Z,98927.19
2023-01-13T02:24:57.442Z,98929.81
2023-01-13T02:27:54.051Z,98923.00
2023-01-13T05:16:54.196Z,98941.25
2023-01-13T05:19:21.685Z,98955.59
2023-01-13T05:22:07.026Z,98961.31
2023-01-13T05:24:52.491Z,98950.72
2023-01-13T05:27:19.955Z,98943.69
2023-01-13T05:29:47.460Z,98935.78
2023-01-13T05:32:16.282Z,98944.78
2023-01-13T05:34:43.780Z,98950.09
2023-01-13T05:37:13.169Z,98957.38
2023-01-13T05:39:54.738Z,98945.78
2023-01-13T05:42:39.880Z,98952.03
2023-01-13T05:45:08.389Z,98939.66
2023-01-13T05:47:37.212Z,98932.72
2023-01-13T05:50:07.193Z,98950.41
2023-01-13T05:52:34.710Z,98957.00
2023-01-13T05:55:02.188Z,98951.00
2023-01-13T05:57:29.793Z,98952.91
2023-01-13T05:59:57.270Z,98961.13
2023-01-13T06:02:26.487Z,98954.44
2023-01-13T06:04:55.298Z,98957.88
2023-01-13T06:07:22.785Z,98946.38
2023-01-13T06:09:50.267Z,98949.25
2023-01-13T06:12:17.736Z,98950.38
2023-01-13T06:14:45.274Z,98945.28
2023-01-13T06:17:14.729Z,98948.00
2023-01-13T06:19:43.020Z,98947.25
2023-01-13T06:22:16.220Z,98953.59
2023-01-13T06:24:44.227Z,98957.34
2023-01-13T06:27:11.718Z,98961.88
2023-01-13T06:29:39.222Z,98956.69
2023-01-13T06:32:08.238Z,98961.13
2023-01-13T06:34:36.402Z,98961.97
2023-01-13T06:37:04.439Z,98967.44
2023-01-13T06:39:33.435Z,98966.69
2023-01-13T06:42:18.549Z,98968.78
2023-01-13T06:44:46.376Z,98963.63
2023-01-13T06:47:14.141Z,98961.91
2023-01-13T06:49:41.678Z,98969.09
2023-01-13T06:52:09.152Z,98986.06
2023-01-13T06:54:38.012Z,98987.88
2023-01-13T06:57:05.473Z,98986.06
2023-01-13T06:59:34.344Z,98975.50
2023-01-13T07:02:02.008Z,98971.88
2023-01-13T07:04:29.650Z,98964.00
2023-01-13T07:06:57.256Z,98969.53
2023-01-13T07:09:24.761Z,98970.53
2023-01-13T07:11:53.583Z,98965.09
2023-01-13T07:14:38.915Z,98963.41
2023-01-13T07:17:06.464Z,98973.19
2023-01-13T07:19:33.976Z,98989.09
2023-01-13T07:22:01.442Z,98981.31
2023-01-13T07:24:28.945Z,98988.28
2023-01-13T07:26:57.774Z,98991.22
2023-01-13T07:29:25.271Z,99002.81
2023-01-13T07:31:52.781Z,99012.44
2023-01-13T07:34:20.293Z,99014.97
2023-01-13T07:36:47.780Z,99015.97
2023-01-13T07:39:15.522Z,98995.63
2023-01-13T07:42:00.565Z,98983.19
2023-01-13T07:44:29.373Z,98974.28
2023-01-13T07:46:56.848Z,98986.78
2023-01-13T07:49:24.329Z,98981.44
2023-01-13T07:51:51.909Z,98971.84
2023-01-13T07:54:25.536Z,98971.03
2023-01-13T07:56:59.168Z,98964.53
2023-01-13T07:59:26.916Z,98959.41
2023-01-13T08:01:55.776Z,98961.19
2023-01-13T08:04:23.516Z,98950.72
2023-01-13T08:06:50.982Z,98952.34
2023-01-13T08:09:18.454Z,98963.00
2023-01-13T08:12:05.915Z,98954.22
2023-01-13T08:14:33.434Z,98957.88
2023-01-13T08:17:02.323Z,98965.84
2023-01-13T08:19:29.811Z,98978.22
2023-01-13T08:21:57.792Z,98966.78
2023-01-13T08:24:25.285Z,98964.28
2023-01-13T08:26:52.874Z,98957.75
2023-01-13T08:29:20.359Z,98964.94
2023-01-13T08:31:47.847Z,98964.94
2023-01-13T08:34:16.926Z,98967.56
2023-01-13T08:36:44.497Z,98980.94
2023-01-13T08:39:11.966Z,98992.44
2023-01-13T08:41:58.535Z,98998.50
2023-01-13T08:44:27.208Z,99003.00
2023-01-13T08:46:55.406Z,99009.06
2023-01-13T08:49:25.323Z,99007.84
2023-01-13T08:51:52.843Z,99017.69
2023-01-13T08:54:20.678Z,99025.38
2023-01-13T08:56:48.750Z,99026.63
2023-01-13T08:59:17.168Z,99030.25
2023-01-13T09:01:45.392Z,99031.75
2023-01-13T09:04:16.909Z,99028.75
2023-01-13T09:06:46.166Z,99031.88
2023-01-13T09:09:13.725Z,99023.75
2023-01-13T09:12:00.562Z,99020.06
2023-01-13T09:14:30.610Z,99016.63
2023-01-13T09:16:58.575Z,99010.38
2023-01-13T09:19:26.483Z,99028.84
2023-01-13T09:21:55.978Z,99018.28
2023-01-13T09:24:24.151Z,99026.25
2023-01-13T09:26:52.058Z,99032.50
2023-01-13T09:29:19.949Z,99037.13
2023-01-13T09:31:47.686Z,99020.88
2023-01-13T09:34:34.742Z,99033.38
2023-01-13T09:37:04.248Z,99038.66
2023-01-13T09:39:32.970Z,99043.31
2023-01-13T09:42:22.824Z,99053.91
2023-01-13T09:44:53.394Z,99051.97
2023-01-13T09:47:28.951Z,99041.94
2023-01-13T09:50:03.029Z,99043.88
2023-01-13T09:52:31.822Z,99045.75
2023-01-13T09:55:01.763Z,99017.03
2023-01-13T09:57:31.200Z,99043.56
2023-01-13T09:59:59.087Z,99042.50
2023-01-13T10:02:34.868Z,99040.44
2023-01-13T10:05:11.746Z,99040.34
2023-01-13T10:07:44.811Z,99038.47
2023-01-13T10:10:17.779Z,99047.94
2023-01-13T10:13:02.862Z,99048.25
2023-01-13T10:15:30.369Z,99048.97
2023-01-13T10:18:05.778Z,99042.06
2023-01-13T10:20:37.021Z,99041.81
2023-01-13T10:23:12.588Z,99040.66
2023-01-13T10:25:56.749Z,99048.66
2023-01-13T10:28:25.391Z,99044.75
2023-01-13T10:30:53.006Z,99041.84
2023-01-13T10:33:26.274Z,99042.69
2023-01-13T10:36:00.152Z,99044.50
2023-01-13T10:38:31.105Z,99052.16
2023-01-13T10:41:00.234Z,99051.47
2023-01-13T10:43:28.844Z,99057.75
2023-01-13T10:45:59.842Z,99057.56
2023-01-13T10:48:36.137Z,99059.00
2023-01-13T10:51:20.853Z,99061.81
2023-01-13T10:53:54.529Z,99051.88
2023-01-13T10:56:23.619Z,99064.28
2023-01-13T10:58:51.221Z,99058.81
2023-01-13T11:01:26.767Z,99058.63
2023-01-13T11:03:55.595Z,99056.09
2023-01-13T11:06:26.011Z,99054.28
2023-01-13T11:08:58.165Z,99055.81
2023-01-13T11:11:38.116Z,99063.66
2023-01-13T11:14:26.832Z,99072.50
2023-01-13T11:16:56.667Z,99066.16
2023-01-13T11:19:25.597Z,99064.16
2023-01-13T11:21:57.704Z,99069.25
2023-01-13T11:24:31.335Z,99074.81
2023-01-13T11:27:01.532Z,99074.13
2023-01-13T11:29:31.805Z,99067.09
2023-01-13T11:32:04.873Z,99071.44
2023-01-13T11:34:36.526Z,99075.84
2023-01-13T11:37:09.852Z,99078.81
2023-01-13T11:39:46.923Z,99069.75
2023-01-13T11:42:24.111Z,99069.81
2023-01-13T11:44:58.428Z,99065.34
2023-01-13T11:47:27.414Z,99073.44
2023-01-13T11:49:55.431Z,99062.78
2023-01-13T11:52:25.211Z,99063.50
2023-01-13T11:55:06.934Z,99068.88
2023-01-13T11:57:50.411Z,99070.44
2023-01-13T12:00:37.851Z,99080.16
2023-01-13T12:03:22.979Z,99087.53
2023-01-13T12:06:02.894Z,99078.44
2023-01-13T12:08:51.028Z,99073.00
2023-01-13T12:11:26.239Z,99065.91
2023-01-13T12:14:07.139Z,99068.41
2023-01-13T12:16:34.641Z,99079.28
2023-01-13T12:19:17.510Z,99076.66
2023-01-13T12:21:56.073Z,99087.91
2023-01-13T12:24:27.284Z,99084.81
2023-01-13T12:26:59.135Z,99083.78
2023-01-13T12:29:30.939Z,99086.78
2023-01-13T12:32:01.147Z,99074.25
2023-01-13T12:34:44.134Z,99067.78
2023-01-13T12:37:17.004Z,99069.84
2023-01-13T12:39:46.766Z,99071.44
2023-01-13T12:42:37.482Z,99072.59
2023-01-13T12:45:22.823Z,99059.91
2023-01-13T12:47:50.451Z,99077.59
2023-01-13T12:50:41.340Z,99071.91
2023-01-13T12:53:38.473Z,99078.28
2023-01-13T12:56:40.413Z,99081.81
2023-01-13T12:59:38.410Z,99087.59
2023-01-13T13:02:27.584Z,99098.56
2023-01-13T13:04:57.564Z,99100.19
2023-01-13T13:07:33.621Z,99100.63
2023-01-13T13:10:02.660Z,99097.56
2023-01-13T13:13:09.296Z,99097.78
2023-01-13T13:15:38.820Z,99097.38
2023-01-13T13:18:25.143Z,99094.63
2023-01-13T13:21:04.026Z,99095.63
2023-01-13T13:23:43.574Z,99102.34
2023-01-13T13:26:25.010Z,99100.56
2023-01-13T13:29:16.499Z,99100.19
2023-01-13T13:32:20.244Z,99107.25
2023-01-13T13:34:53.473Z,99107.31
2023-01-13T13:37:32.400Z,99112.69
2023-01-13T13:40:20.639Z,99107.19
2023-01-13T13:43:11.527Z,99108.19
2023-01-13T13:45:56.875Z,99109.06
2023-01-13T13:48:27.668Z,99101.91
2023-01-13T13:50:58.306Z,99108.97
2023-01-13T13:53:28.851Z,99115.47
2023-01-13T13:55:59.443Z,99113.19
2023-01-13T13:58:27.630Z,99124.47
2023-01-13T14:00:56.541Z,99116.03
2023-01-13T14:03:27.565Z,99115.09
2023-01-13T14:05:57.173Z,99110.72
2023-01-13T14:08:25.682Z,99119.88
2023-01-13T14:10:53.155Z,99127.22
2023-01-13T14:13:23.089Z,99124.19
2023-01-13T14:15:51.594Z,99122.06
2023-01-13T14:18:20.987Z,99127.25
2023-01-13T14:20:56.039Z,99138.56
2023-01-13T14:23:27.476Z,99130.56
2023-01-13T14:25:55.563Z,99141.34
2023-01-13T14:28:26.054Z,99145.66
2023-01-13T14:30:54.449Z,99135.44
2023-01-13T14:33:35.279Z,99142.56
2023-01-13T14:36:24.946Z,99152.50
2023-01-13T14:39:26.673Z,99150.66
2023-01-13T14:41:54.393Z,99159.69
2023-01-13T14:44:25.331Z,99145.81
2023-01-13T14:46:55.146Z,99158.22
2023-01-13T14:49:25.825Z,99170.66
2023-01-13T14:51:54.909Z,99162.25
2023-01-13T14:54:44.182Z,99163.91
2023-01-13T14:57:16.897Z,99171.84
2023-01-13T14:59:51.543Z,99171.13
2023-01-13T15:02:46.647Z,99185.22
2023-01-13T15:05:34.238Z,99189.88
2023-01-13T15:08:06.235Z,99191.88
2023-01-13T15:10:38.110Z,99198.25
2023-01-13T15:13:07.212Z,99205.38
2023-01-13T15:15:36.584Z,99210.00
2023-01-13T15:18:11.573Z,99200.47
2023-01-13T15:20:40.092Z,99221.63
2023-01-13T15:23:09.162Z,99233.31
2023-01-13T15:25:40.741Z,99244.00
2023-01-13T15:28:11.649Z,99236.19
2023-01-13T15:30:39.395Z,99240.69
2023-01-13T15:33:06.930Z,99248.72
2023-01-13T15:35:34.679Z,99248.69
2023-01-13T15:38:02.724Z,99239.19
2023-01-13T15:40:33.212Z,99241.00
2023-01-13T15:43:18.235Z,99258.03
2023-01-13T15:46:04.058Z,99242.19
2023-01-13T15:48:32.803Z,99261.78
2023-01-13T15:51:01.170Z,99249.31
2023-01-13T15:53:29.892Z,99247.59
2023-01-13T15:55:59.941Z,99259.03
2023-01-13T15:58:29.566Z,99263.56
2023-01-13T16:00:57.200Z,99270.72
2023-01-13T16:03:24.755Z,99267.41
2023-01-13T16:05:52.232Z,99272.47
2023-01-13T16:08:21.291Z,99276.19
2023-01-13T16:10:49.432Z,99276.19
2023-01-13T16:13:18.715Z,99279.44
2023-01-13T16:15:48.167Z,99281.19
2023-01-13T16:18:17.946Z,99278.53
2023-01-13T16:20:45.488Z,99283.19
2023-01-13T16:23:13.548Z,99279.66
2023-01-13T16:25:43.048Z,99283.25
2023-01-13T16:28:19.088Z,99286.81
2023-01-13T16:30:46.632Z,99292.53
2023-01-13T16:33:14.233Z,99294.91
2023-01-13T16:36:08.974Z,99297.94
2023-01-13T16:38:29.160Z,99304.00
2023-01-13T16:40:57.996Z,99294.28
2023-01-13T16:43:27.810Z,99298.72
2023-01-13T16:45:55.405Z,99308.50
2023-01-13T16:48:22.979Z,99308.31
2023-01-13T16:50:50.894Z,99313.69
2023-01-13T16:53:18.458Z,99311.03
2023-01-13T16:55:46.150Z,99320.81
2023-01-13T16:58:17.795Z,99320.13
2023-01-13T17:00:47.491Z,99321.94
2023-01-13T17:03:15.105Z,99323.84
2023-01-13T17:05:43.296Z,99338.81
2023-01-13T17:08:12.731Z,99332.56
2023-01-13T17:10:40.241Z,99336.16
2023-01-13T17:13:16.051Z,99339.69
2023-01-13T17:15:45.849Z,99333.44
2023-01-13T17:18:13.870Z,99338.81
2023-01-13T17:20:41.423Z,99344.03
2023-01-13T17:23:08.926Z,99348.66
2023-01-13T17:25:36.478Z,99337.03
2023-01-13T17:28:04.162Z,99343.38
2023-01-13T17:30:31.700Z,99349.59
2023-01-13T17:33:00.532Z,99342.59
2023-01-13T17:35:28.010Z,99348.88
2023-01-13T17:37:55.781Z,99352.41
2023-01-13T17:40:24.084Z,99355.81
2023-01-13T17:42:51.569Z,99354.97
2023-01-13T17:45:19.052Z,99358.66
2023-01-13T17:47:47.579Z,99361.38
2023-01-13T17:50:18.540Z,99357.97
2023-01-13T17:52:46.072Z,99365.13
2023-01-13T17:55:13.543Z,99372.94
2023-01-13T17:57:41.025Z,99377.44
2023-01-13T18:00:12.012Z,99380.13
2023-01-13T18:02:39.560Z,99376.47
2023-01-13T18:05:07.474Z,99382.88
2023-01-13T18:07:36.246Z,99381.13
2023-01-13T18:10:03.737Z,99385.59
2023-01-13T18:12:31.234Z,99383.97
2023-01-13T18:14:58.729Z,99388.31
2023-01-13T18:17:26.212Z,99391.88
2023-01-13T18:20:11.026Z,99384.84
2023-01-13T18:22:57.676Z,99390.97
2023-01-13T18:25:42.991Z,99398.06
2023-01-13T18:28:10.475Z,99398.94
2023-01-13T18:30:38.061Z,99398.03
2023-01-13T18:33:05.597Z,99401.56
2023-01-13T18:35:33.081Z,99394.44
2023-01-13T18:38:01.864Z,99402.25
2023-01-13T18:40:29.382Z,99406.06
2023-01-13T18:42:55.901Z,99410.41
2023-01-13T18:45:25.266Z,99406.59
2023-01-13T18:47:53.731Z,99401.44
2023-01-13T18:50:22.359Z,99415.56
2023-01-13T18:52:49.976Z,99406.94
2023-01-13T18:55:18.911Z,99414.84
2023-01-13T18:57:46.833Z,99424.50
2023-01-13T19:00:16.769Z,99432.50
2023-01-13T19:02:44.707Z,99428.28
2023-01-13T19:05:12.487Z,99436.22
2023-01-13T19:07:40.389Z,99436.28
2023-01-13T19:10:09.783Z,99428.47
2023-01-13T19:12:38.613Z,99432.75
2023-01-13T19:15:07.170Z,99446.97
2023-01-13T19:17:35.745Z,99444.47
2023-01-13T19:20:05.273Z,99450.50
2023-01-13T19:22:34.209Z,99462.25
2023-01-13T19:25:03.009Z,99464.91
2023-01-13T19:27:30.938Z,99473.81
2023-01-13T19:30:00.827Z,99462.34
2023-01-13T19:32:30.730Z,99473.78
2023-01-13T19:34:59.761Z,99473.81
2023-01-13T19:37:30.208Z,99458.72
2023-01-13T19:39:58.989Z,99480.84
2023-01-13T19:42:43.960Z,99475.47
2023-01-13T19:45:27.628Z,99488.84
2023-01-13T19:47:55.778Z,99489.56
2023-01-13T19:50:23.276Z,99486.91
2023-01-13T19:52:50.749Z,99473.59
2023-01-13T19:55:19.768Z,99482.50
2023-01-13T19:57:48.660Z,99490.63
2023-01-13T20:00:20.870Z,99496.84
2023-01-13T20:02:49.391Z,99497.78
2023-01-13T20:05:21.328Z,99499.41
2023-01-13T20:07:49.831Z,99514.56
2023-01-13T20:10:17.692Z,99510.09
2023-01-13T20:12:45.351Z,99521.59
2023-01-13T20:15:12.853Z,99519.16
2023-01-13T20:17:41.789Z,99519.09
2023-01-13T20:20:11.317Z,99523.50
2023-01-13T20:22:38.934Z,99528.75
2023-01-13T20:25:07.675Z,99535.97
2023-01-13T20:27:35.232Z,99530.69
2023-01-13T20:30:02.754Z,99524.56
2023-01-13T20:32:30.218Z,99544.03
2023-01-13T20:34:59.018Z,99539.75
2023-01-13T20:37:26.928Z,99551.25
2023-01-13T20:39:55.229Z,99545.91
2023-01-13T20:42:31.755Z,99546.84
2023-01-13T20:45:00.526Z,99544.94
2023-01-13T20:47:29.147Z,99553.84
2023-01-13T20:49:56.988Z,99550.25
2023-01-13T20:52:26.075Z,99561.81
2023-01-13T20:54:53.756Z,99562.69
2023-01-13T20:57:21.302Z,99570.59
2023-01-13T20:59:48.788Z,99567.06
2023-01-13T21:02:17.208Z,99556.53
2023-01-13T21:04:44.940Z,99553.09
2023-01-13T21:07:12.444Z,99560.88
2023-01-13T21:09:41.288Z,99558.19
2023-01-13T21:12:26.555Z,99556.31
2023-01-13T21:15:11.847Z,99565.19
2023-01-13T21:17:56.693Z,99574.00
2023-01-13T21:20:24.194Z,99573.25
2023-01-13T21:22:51.657Z,99576.84
2023-01-13T21:25:20.936Z,99576.78
2023-01-13T21:27:48.449Z,99583.88
2023-01-13T21:30:17.833Z,99586.63
2023-01-13T21:32:46.112Z,99586.59
2023-01-13T21:35:14.693Z,99587.56
2023-01-13T21:37:43.554Z,99603.44
2023-01-13T21:40:13.460Z,99595.47
2023-01-13T21:43:00.416Z,99594.66
2023-01-13T21:45:45.844Z,99603.44
2023-01-13T21:48:13.506Z,99607.97
2023-01-13T21:50:42.153Z,99612.41
2023-01-13T21:53:09.670Z,99623.03
2023-01-13T21:55:37.650Z,99631.84
2023-01-13T21:58:11.675Z,99630.00
2023-01-13T22:00:40.000Z,99634.38
2023-01-13T22:03:08.381Z,99639.53
2023-01-13T22:05:36.230Z,99645.84
2023-01-13T22:08:03.860Z,99642.25
2023-01-13T22:10:31.763Z,99648.44
2023-01-13T22:13:20.411Z,99650.13
2023-01-13T22:15:49.238Z,99657.22
2023-01-13T22:18:18.002Z,99647.47
2023-01-13T22:20:45.524Z,99668.66
2023-01-13T22:23:13.323Z,99659.84
2023-01-13T22:25:40.819Z,99661.47
2023-01-13T22:28:09.319Z,99661.56
2023-01-13T22:30:37.124Z,99672.22
2023-01-13T22:33:05.996Z,99672.16
2023-01-13T22:35:33.489Z,99681.97
2023-01-13T22:38:00.957Z,99673.16
2023-01-13T22:40:28.435Z,99689.88
2023-01-13T22:42:55.892Z,99680.97
2023-01-13T22:45:23.385Z,99695.16
2023-01-13T22:47:50.843Z,99694.25
2023-01-13T22:50:20.938Z,99702.28
2023-01-13T22:52:48.651Z,99705.84
2023-01-13T22:55:16.267Z,99712.94
2023-01-13T22:57:48.123Z,99725.41
2023-01-13T23:00:18.824Z,99720.09
2023-01-13T23:02:47.905Z,99728.06
2023-01-13T23:05:15.582Z,99727.13
2023-01-13T23:07:44.364Z,99728.00
2023-01-13T23:10:12.481Z,99736.84
2023-01-13T23:12:39.931Z,99738.69
2023-01-13T23:15:08.111Z,99742.13
2023-01-13T23:17:35.596Z,99737.69
2023-01-13T23:20:03.206Z,99739.47
2023-01-13T23:22:30.672Z,99743.03
2023-01-13T23:24:59.452Z,99754.50
2023-01-13T23:27:26.937Z,99748.28
2023-01-13T23:29:56.039Z,99758.94
2023-01-13T23:32:23.640Z,99756.25
2023-01-13T23:34:54.311Z,99761.59
2023-01-13T23:37:21.782Z,99758.03
2023-01-13T23:39:49.744Z,99759.84
2023-01-13T23:42:18.698Z,99757.13
2023-01-13T23:44:46.186Z,99763.50
2023-01-13T23:47:13.649Z,99768.78
2023-01-13T23:49:41.427Z,99756.38
2023-01-13T23:52:08.894Z,99772.31
2023-01-13T23:54:36.449Z,99781.16
2023-01-13T23:57:03.971Z,99769.69
2023-01-13T23:59:32.749Z,99771.44
